sensor_id;sensor_type;location;lat;lon;timestamp;P1;durP1;ratioP1;P2;durP2;ratioP2
73919;SDS011;62266;53.348;-1.496;2024-01-30T00:02:18;28.35;;;15.65;;
73919;SDS011;62266;53.348;-1.496;2024-01-30T00:05:02;29.40;;;14.87;;
73919;SDS011;62266;53.348;-1.496;2024-01-30T00:07:47;26.95;;;14.27;;
73919;SDS011;62266;53.348;-1.496;2024-01-30T00:10:32;28.38;;;14.13;;
73919;SDS011;62266;53.348;-1.496;2024-01-30T00:13:16;29.58;;;13.15;;
73919;SDS011;62266;53.348;-1.496;2024-01-30T00:16:02;24.92;;;13.70;;
73919;SDS011;62266;53.348;-1.496;2024-01-30T00:18:47;32.87;;;13.93;;
73919;SDS011;62266;53.348;-1.496;2024-01-30T00:21:32;29.38;;;12.35;;
73919;SDS011;62266;53.348;-1.496;2024-01-30T00:24:17;31.52;;;12.40;;
73919;SDS011;62266;53.348;-1.496;2024-01-30T00:27:00;29.25;;;12.43;;
73919;SDS011;62266;53.348;-1.496;2024-01-30T00:29:44;27.55;;;12.23;;
73919;SDS011;62266;53.348;-1.496;2024-01-30T00:32:28;28.83;;;12.97;;
73919;SDS011;62266;53.348;-1.496;2024-01-30T00:35:12;25.20;;;12.25;;
73919;SDS011;62266;53.348;-1.496;2024-01-30T00:37:56;30.05;;;12.93;;
73919;SDS011;62266;53.348;-1.496;2024-01-30T00:40:41;29.17;;;12.82;;
73919;SDS011;62266;53.348;-1.496;2024-01-30T00:43:25;32.03;;;13.90;;
73919;SDS011;62266;53.348;-1.496;2024-01-30T00:46:10;24.83;;;11.83;;
73919;SDS011;62266;53.348;-1.496;2024-01-30T00:48:54;31.17;;;13.00;;
73919;SDS011;62266;53.348;-1.496;2024-01-30T00:51:38;25.17;;;12.30;;
73919;SDS011;62266;53.348;-1.496;2024-01-30T00:54:22;25.23;;;12.65;;
73919;SDS011;62266;53.348;-1.496;2024-01-30T00:57:06;23.33;;;13.68;;
73919;SDS011;62266;53.348;-1.496;2024-01-30T00:59:50;24.43;;;13.13;;
73919;SDS011;62266;53.348;-1.496;2024-01-30T01:02:35;28.08;;;12.65;;
73919;SDS011;62266;53.348;-1.496;2024-01-30T01:05:19;26.02;;;12.07;;
73919;SDS011;62266;53.348;-1.496;2024-01-30T01:08:03;29.92;;;13.07;;
73919;SDS011;62266;53.348;-1.496;2024-01-30T01:10:48;25.02;;;12.23;;
73919;SDS011;62266;53.348;-1.496;2024-01-30T01:13:32;29.27;;;11.83;;
73919;SDS011;62266;53.348;-1.496;2024-01-30T01:16:17;25.92;;;12.40;;
73919;SDS011;62266;53.348;-1.496;2024-01-30T01:19:01;25.27;;;11.75;;
73919;SDS011;62266;53.348;-1.496;2024-01-30T01:21:45;27.73;;;12.60;;
73919;SDS011;62266;53.348;-1.496;2024-01-30T01:24:32;25.63;;;11.70;;
73919;SDS011;62266;53.348;-1.496;2024-01-30T01:27:16;24.70;;;12.97;;
73919;SDS011;62266;53.348;-1.496;2024-01-30T01:30:00;24.65;;;12.15;;
73919;SDS011;62266;53.348;-1.496;2024-01-30T01:32:45;28.92;;;13.32;;
73919;SDS011;62266;53.348;-1.496;2024-01-30T01:35:34;24.77;;;11.98;;
73919;SDS011;62266;53.348;-1.496;2024-01-30T01:38:19;25.90;;;11.73;;
73919;SDS011;62266;53.348;-1.496;2024-01-30T01:41:03;26.07;;;12.73;;
73919;SDS011;62266;53.348;-1.496;2024-01-30T01:43:47;28.45;;;12.65;;
73919;SDS011;62266;53.348;-1.496;2024-01-30T01:46:32;25.67;;;11.52;;
73919;SDS011;62266;53.348;-1.496;2024-01-30T01:49:17;27.17;;;12.63;;
73919;SDS011;62266;53.348;-1.496;2024-01-30T01:52:03;25.65;;;12.05;;
73919;SDS011;62266;53.348;-1.496;2024-01-30T01:54:47;22.03;;;12.17;;
73919;SDS011;62266;53.348;-1.496;2024-01-30T01:57:31;20.63;;;10.82;;
73919;SDS011;62266;53.348;-1.496;2024-01-30T02:00:15;23.85;;;11.25;;
73919;SDS011;62266;53.348;-1.496;2024-01-30T02:03:00;24.50;;;11.90;;
73919;SDS011;62266;53.348;-1.496;2024-01-30T02:05:44;25.02;;;11.65;;
73919;SDS011;62266;53.348;-1.496;2024-01-30T02:08:29;21.27;;;11.47;;
73919;SDS011;62266;53.348;-1.496;2024-01-30T02:11:13;23.45;;;11.23;;
73919;SDS011;62266;53.348;-1.496;2024-01-30T02:14:01;22.80;;;11.65;;
73919;SDS011;62266;53.348;-1.496;2024-01-30T02:16:46;32.10;;;10.77;;
73919;SDS011;62266;53.348;-1.496;2024-01-30T02:19:30;23.10;;;10.35;;
73919;SDS011;62266;53.348;-1.496;2024-01-30T02:22:15;20.00;;;9.53;;
73919;SDS011;62266;53.348;-1.496;2024-01-30T02:24:59;17.10;;;8.07;;
73919;SDS011;62266;53.348;-1.496;2024-01-30T02:27:43;11.20;;;5.90;;
73919;SDS011;62266;53.348;-1.496;2024-01-30T02:30:27;7.32;;;4.35;;
73919;SDS011;62266;53.348;-1.496;2024-01-30T02:33:11;5.55;;;4.15;;
73919;SDS011;62266;53.348;-1.496;2024-01-30T02:35:55;4.73;;;2.70;;
73919;SDS011;62266;53.348;-1.496;2024-01-30T02:38:40;2.60;;;2.30;;
73919;SDS011;62266;53.348;-1.496;2024-01-30T02:41:24;3.33;;;2.47;;
73919;SDS011;62266;53.348;-1.496;2024-01-30T02:44:08;3.47;;;1.77;;
73919;SDS011;62266;53.348;-1.496;2024-01-30T02:46:52;2.85;;;1.85;;
73919;SDS011;62266;53.348;-1.496;2024-01-30T02:49:37;4.03;;;1.80;;
73919;SDS011;62266;53.348;-1.496;2024-01-30T02:52:21;2.78;;;1.75;;
73919;SDS011;62266;53.348;-1.496;2024-01-30T02:55:06;2.47;;;1.80;;
73919;SDS011;62266;53.348;-1.496;2024-01-30T02:57:50;2.97;;;1.75;;
73919;SDS011;62266;53.348;-1.496;2024-01-30T03:00:34;2.30;;;1.52;;
73919;SDS011;62266;53.348;-1.496;2024-01-30T03:03:18;2.40;;;1.67;;
73919;SDS011;62266;53.348;-1.496;2024-01-30T03:06:02;3.22;;;1.65;;
73919;SDS011;62266;53.348;-1.496;2024-01-30T03:08:47;2.72;;;1.83;;
73919;SDS011;62266;53.348;-1.496;2024-01-30T03:11:31;2.30;;;1.40;;
73919;SDS011;62266;53.348;-1.496;2024-01-30T03:14:15;2.30;;;1.45;;
73919;SDS011;62266;53.348;-1.496;2024-01-30T03:16:59;1.80;;;1.53;;
73919;SDS011;62266;53.348;-1.496;2024-01-30T03:19:42;1.85;;;1.45;;
73919;SDS011;62266;53.348;-1.496;2024-01-30T03:22:27;1.30;;;1.13;;
73919;SDS011;62266;53.348;-1.496;2024-01-30T03:25:10;4.60;;;1.58;;
73919;SDS011;62266;53.348;-1.496;2024-01-30T03:27:54;1.65;;;1.40;;
73919;SDS011;62266;53.348;-1.496;2024-01-30T03:30:38;2.13;;;1.50;;
73919;SDS011;62266;53.348;-1.496;2024-01-30T03:33:22;1.90;;;1.40;;
73919;SDS011;62266;53.348;-1.496;2024-01-30T03:36:07;1.42;;;1.17;;
73919;SDS011;62266;53.348;-1.496;2024-01-30T03:38:52;1.45;;;0.50;;
73919;SDS011;62266;53.348;-1.496;2024-01-30T03:41:36;0.68;;;0.50;;
73919;SDS011;62266;53.348;-1.496;2024-01-30T03:44:20;0.60;;;0.40;;
73919;SDS011;62266;53.348;-1.496;2024-01-30T03:47:04;0.30;;;0.30;;
73919;SDS011;62266;53.348;-1.496;2024-01-30T03:49:48;0.30;;;0.30;;
73919;SDS011;62266;53.348;-1.496;2024-01-30T03:52:32;0.20;;;0.13;;
73919;SDS011;62266;53.348;-1.496;2024-01-30T03:55:16;0.65;;;0.20;;
73919;SDS011;62266;53.348;-1.496;2024-01-30T03:58:00;0.40;;;0.20;;
73919;SDS011;62266;53.348;-1.496;2024-01-30T04:00:44;0.30;;;0.15;;
73919;SDS011;62266;53.348;-1.496;2024-01-30T04:03:28;0.52;;;0.17;;
73919;SDS011;62266;53.348;-1.496;2024-01-30T04:06:12;0.90;;;0.30;;
73919;SDS011;62266;53.348;-1.496;2024-01-30T04:08:56;0.50;;;0.30;;
73919;SDS011;62266;53.348;-1.496;2024-01-30T04:11:41;0.37;;;0.37;;
73919;SDS011;62266;53.348;-1.496;2024-01-30T04:14:28;0.20;;;0.20;;
73919;SDS011;62266;53.348;-1.496;2024-01-30T04:17:12;0.50;;;0.28;;
73919;SDS011;62266;53.348;-1.496;2024-01-30T04:19:56;0.60;;;0.40;;
73919;SDS011;62266;53.348;-1.496;2024-01-30T04:22:40;0.30;;;0.20;;
73919;SDS011;62266;53.348;-1.496;2024-01-30T04:25:24;0.60;;;0.20;;
73919;SDS011;62266;53.348;-1.496;2024-01-30T04:28:08;1.00;;;0.40;;
73919;SDS011;62266;53.348;-1.496;2024-01-30T04:30:52;0.35;;;0.30;;
73919;SDS011;62266;53.348;-1.496;2024-01-30T04:33:37;0.50;;;0.30;;
73919;SDS011;62266;53.348;-1.496;2024-01-30T04:36:21;0.60;;;0.30;;
73919;SDS011;62266;53.348;-1.496;2024-01-30T04:39:05;0.50;;;0.20;;
73919;SDS011;62266;53.348;-1.496;2024-01-30T04:41:49;0.60;;;0.40;;
73919;SDS011;62266;53.348;-1.496;2024-01-30T04:44:33;0.28;;;0.20;;
73919;SDS011;62266;53.348;-1.496;2024-01-30T04:47:17;0.60;;;0.38;;
73919;SDS011;62266;53.348;-1.496;2024-01-30T04:50:01;0.77;;;0.52;;
73919;SDS011;62266;53.348;-1.496;2024-01-30T04:52:48;0.50;;;0.20;;
73919;SDS011;62266;53.348;-1.496;2024-01-30T04:55:32;0.40;;;0.20;;
73919;SDS011;62266;53.348;-1.496;2024-01-30T04:58:16;0.63;;;0.38;;
73919;SDS011;62266;53.348;-1.496;2024-01-30T05:01:00;0.63;;;0.30;;
73919;SDS011;62266;53.348;-1.496;2024-01-30T05:03:44;0.73;;;0.60;;
73919;SDS011;62266;53.348;-1.496;2024-01-30T05:06:28;1.37;;;0.80;;
73919;SDS011;62266;53.348;-1.496;2024-01-30T05:09:12;1.00;;;0.50;;
73919;SDS011;62266;53.348;-1.496;2024-01-30T05:11:56;1.05;;;0.55;;
73919;SDS011;62266;53.348;-1.496;2024-01-30T05:14:40;1.23;;;0.75;;
73919;SDS011;62266;53.348;-1.496;2024-01-30T05:17:24;0.80;;;0.60;;
73919;SDS011;62266;53.348;-1.496;2024-01-30T05:20:08;1.23;;;0.77;;
73919;SDS011;62266;53.348;-1.496;2024-01-30T05:22:54;1.85;;;0.88;;
73919;SDS011;62266;53.348;-1.496;2024-01-30T05:25:38;1.90;;;1.10;;
73919;SDS011;62266;53.348;-1.496;2024-01-30T05:28:22;1.52;;;1.02;;
73919;SDS011;62266;53.348;-1.496;2024-01-30T05:31:06;1.98;;;0.88;;
73919;SDS011;62266;53.348;-1.496;2024-01-30T05:33:51;1.17;;;0.80;;
73919;SDS011;62266;53.348;-1.496;2024-01-30T05:36:35;1.70;;;0.85;;
73919;SDS011;62266;53.348;-1.496;2024-01-30T05:39:19;2.00;;;1.00;;
73919;SDS011;62266;53.348;-1.496;2024-01-30T05:42:04;2.58;;;1.00;;
73919;SDS011;62266;53.348;-1.496;2024-01-30T05:44:47;2.35;;;1.25;;
73919;SDS011;62266;53.348;-1.496;2024-01-30T05:47:32;1.17;;;0.67;;
73919;SDS011;62266;53.348;-1.496;2024-01-30T05:50:16;1.25;;;0.73;;
73919;SDS011;62266;53.348;-1.496;2024-01-30T05:53:01;1.00;;;0.70;;
73919;SDS011;62266;53.348;-1.496;2024-01-30T05:55:45;1.13;;;0.70;;
73919;SDS011;62266;53.348;-1.496;2024-01-30T05:58:30;0.93;;;0.50;;
73919;SDS011;62266;53.348;-1.496;2024-01-30T06:01:14;0.80;;;0.40;;
73919;SDS011;62266;53.348;-1.496;2024-01-30T06:03:58;0.82;;;0.40;;
73919;SDS011;62266;53.348;-1.496;2024-01-30T06:06:42;0.50;;;0.40;;
73919;SDS011;62266;53.348;-1.496;2024-01-30T06:09:27;0.95;;;0.50;;
73919;SDS011;62266;53.348;-1.496;2024-01-30T06:12:11;1.45;;;0.60;;
73919;SDS011;62266;53.348;-1.496;2024-01-30T06:14:55;1.20;;;0.80;;
73919;SDS011;62266;53.348;-1.496;2024-01-30T06:17:40;0.63;;;0.30;;
73919;SDS011;62266;53.348;-1.496;2024-01-30T06:20:25;0.40;;;0.28;;
73919;SDS011;62266;53.348;-1.496;2024-01-30T06:23:09;0.38;;;0.17;;
73919;SDS011;62266;53.348;-1.496;2024-01-30T06:25:53;0.57;;;0.30;;
73919;SDS011;62266;53.348;-1.496;2024-01-30T06:28:38;0.60;;;0.37;;
73919;SDS011;62266;53.348;-1.496;2024-01-30T06:31:21;0.85;;;0.20;;
73919;SDS011;62266;53.348;-1.496;2024-01-30T06:34:06;0.43;;;0.43;;
73919;SDS011;62266;53.348;-1.496;2024-01-30T06:36:49;0.43;;;0.30;;
73919;SDS011;62266;53.348;-1.496;2024-01-30T06:39:34;0.40;;;0.20;;
73919;SDS011;62266;53.348;-1.496;2024-01-30T06:42:17;0.30;;;0.17;;
73919;SDS011;62266;53.348;-1.496;2024-01-30T06:45:02;0.30;;;0.20;;
73919;SDS011;62266;53.348;-1.496;2024-01-30T06:47:47;0.57;;;0.20;;
73919;SDS011;62266;53.348;-1.496;2024-01-30T06:50:31;0.35;;;0.20;;
73919;SDS011;62266;53.348;-1.496;2024-01-30T06:53:14;0.40;;;0.17;;
73919;SDS011;62266;53.348;-1.496;2024-01-30T06:55:58;0.20;;;0.10;;
73919;SDS011;62266;53.348;-1.496;2024-01-30T06:58:43;0.30;;;0.20;;
73919;SDS011;62266;53.348;-1.496;2024-01-30T07:01:27;0.20;;;0.00;;
73919;SDS011;62266;53.348;-1.496;2024-01-30T07:04:14;0.20;;;0.10;;
73919;SDS011;62266;53.348;-1.496;2024-01-30T07:06:59;0.30;;;0.20;;
73919;SDS011;62266;53.348;-1.496;2024-01-30T07:09:43;0.30;;;0.20;;
73919;SDS011;62266;53.348;-1.496;2024-01-30T07:12:28;0.20;;;0.10;;
73919;SDS011;62266;53.348;-1.496;2024-01-30T07:15:14;0.20;;;0.10;;
73919;SDS011;62266;53.348;-1.496;2024-01-30T07:18:00;0.20;;;0.10;;
73919;SDS011;62266;53.348;-1.496;2024-01-30T07:20:44;0.30;;;0.20;;
73919;SDS011;62266;53.348;-1.496;2024-01-30T07:23:33;0.30;;;0.17;;
73919;SDS011;62266;53.348;-1.496;2024-01-30T07:26:18;0.50;;;0.20;;
73919;SDS011;62266;53.348;-1.496;2024-01-30T07:29:02;0.30;;;0.20;;
73919;SDS011;62266;53.348;-1.496;2024-01-30T07:31:47;0.30;;;0.28;;
73919;SDS011;62266;53.348;-1.496;2024-01-30T07:34:31;0.63;;;0.30;;
73919;SDS011;62266;53.348;-1.496;2024-01-30T07:37:15;0.30;;;0.23;;
73919;SDS011;62266;53.348;-1.496;2024-01-30T07:40:01;0.65;;;0.20;;
73919;SDS011;62266;53.348;-1.496;2024-01-30T07:42:48;0.30;;;0.30;;
73919;SDS011;62266;53.348;-1.496;2024-01-30T07:45:32;0.52;;;0.20;;
73919;SDS011;62266;53.348;-1.496;2024-01-30T07:48:17;0.38;;;0.30;;
73919;SDS011;62266;53.348;-1.496;2024-01-30T07:51:01;1.40;;;0.37;;
73919;SDS011;62266;53.348;-1.496;2024-01-30T07:53:47;0.52;;;0.22;;
73919;SDS011;62266;53.348;-1.496;2024-01-30T07:56:31;0.30;;;0.10;;
73919;SDS011;62266;53.348;-1.496;2024-01-30T07:59:15;0.20;;;0.20;;
73919;SDS011;62266;53.348;-1.496;2024-01-30T08:01:59;0.40;;;0.40;;
73919;SDS011;62266;53.348;-1.496;2024-01-30T08:04:44;0.30;;;0.20;;
73919;SDS011;62266;53.348;-1.496;2024-01-30T08:07:32;0.40;;;0.25;;
73919;SDS011;62266;53.348;-1.496;2024-01-30T08:10:17;1.05;;;0.45;;
73919;SDS011;62266;53.348;-1.496;2024-01-30T08:13:02;1.05;;;0.40;;
73919;SDS011;62266;53.348;-1.496;2024-01-30T08:15:47;0.85;;;0.47;;
73919;SDS011;62266;53.348;-1.496;2024-01-30T08:18:31;1.27;;;0.30;;
73919;SDS011;62266;53.348;-1.496;2024-01-30T08:21:15;0.50;;;0.40;;
73919;SDS011;62266;53.348;-1.496;2024-01-30T08:24:00;0.30;;;0.22;;
73919;SDS011;62266;53.348;-1.496;2024-01-30T08:26:48;0.80;;;0.28;;
73919;SDS011;62266;53.348;-1.496;2024-01-30T08:29:33;0.85;;;0.25;;
73919;SDS011;62266;53.348;-1.496;2024-01-30T08:32:17;0.60;;;0.40;;
73919;SDS011;62266;53.348;-1.496;2024-01-30T08:35:01;0.73;;;0.40;;
73919;SDS011;62266;53.348;-1.496;2024-01-30T08:37:50;0.82;;;0.50;;
73919;SDS011;62266;53.348;-1.496;2024-01-30T08:40:34;0.50;;;0.30;;
73919;SDS011;62266;53.348;-1.496;2024-01-30T08:43:19;0.70;;;0.50;;
73919;SDS011;62266;53.348;-1.496;2024-01-30T08:46:03;1.27;;;0.60;;
73919;SDS011;62266;53.348;-1.496;2024-01-30T08:48:47;1.83;;;1.33;;
73919;SDS011;62266;53.348;-1.496;2024-01-30T08:51:31;2.92;;;0.57;;
73919;SDS011;62266;53.348;-1.496;2024-01-30T08:54:15;0.77;;;0.50;;
73919;SDS011;62266;53.348;-1.496;2024-01-30T08:57:00;2.80;;;1.10;;
73919;SDS011;62266;53.348;-1.496;2024-01-30T08:59:43;0.93;;;0.57;;
73919;SDS011;62266;53.348;-1.496;2024-01-30T09:02:29;1.98;;;1.35;;
73919;SDS011;62266;53.348;-1.496;2024-01-30T09:05:13;0.50;;;0.40;;
73919;SDS011;62266;53.348;-1.496;2024-01-30T09:07:57;4.47;;;4.07;;
73919;SDS011;62266;53.348;-1.496;2024-01-30T09:10:41;1.92;;;1.15;;
73919;SDS011;62266;53.348;-1.496;2024-01-30T09:13:25;0.40;;;0.30;;
73919;SDS011;62266;53.348;-1.496;2024-01-30T09:16:09;1.70;;;1.10;;
73919;SDS011;62266;53.348;-1.496;2024-01-30T09:18:53;0.90;;;0.90;;
73919;SDS011;62266;53.348;-1.496;2024-01-30T09:21:37;1.65;;;1.23;;
73919;SDS011;62266;53.348;-1.496;2024-01-30T09:24:22;0.68;;;0.38;;
73919;SDS011;62266;53.348;-1.496;2024-01-30T09:27:06;3.20;;;2.10;;
73919;SDS011;62266;53.348;-1.496;2024-01-30T09:29:50;1.00;;;0.90;;
73919;SDS011;62266;53.348;-1.496;2024-01-30T09:32:34;1.13;;;0.70;;
73919;SDS011;62266;53.348;-1.496;2024-01-30T09:35:18;0.65;;;0.50;;
73919;SDS011;62266;53.348;-1.496;2024-01-30T09:38:02;0.80;;;0.60;;
73919;SDS011;62266;53.348;-1.496;2024-01-30T09:40:49;0.57;;;0.30;;
73919;SDS011;62266;53.348;-1.496;2024-01-30T09:43:38;0.93;;;0.70;;
73919;SDS011;62266;53.348;-1.496;2024-01-30T09:46:26;0.40;;;0.30;;
73919;SDS011;62266;53.348;-1.496;2024-01-30T09:49:11;2.65;;;1.75;;
73919;SDS011;62266;53.348;-1.496;2024-01-30T09:51:56;0.93;;;0.30;;
73919;SDS011;62266;53.348;-1.496;2024-01-30T09:54:39;0.80;;;0.60;;
73919;SDS011;62266;53.348;-1.496;2024-01-30T09:57:24;0.82;;;0.40;;
73919;SDS011;62266;53.348;-1.496;2024-01-30T10:00:10;0.50;;;0.30;;
73919;SDS011;62266;53.348;-1.496;2024-01-30T10:02:55;0.88;;;0.30;;
73919;SDS011;62266;53.348;-1.496;2024-01-30T10:05:39;1.23;;;0.40;;
73919;SDS011;62266;53.348;-1.496;2024-01-30T10:08:25;1.17;;;0.40;;
73919;SDS011;62266;53.348;-1.496;2024-01-30T10:11:10;0.63;;;0.20;;
73919;SDS011;62266;53.348;-1.496;2024-01-30T10:13:54;0.63;;;0.38;;
73919;SDS011;62266;53.348;-1.496;2024-01-30T10:16:38;0.50;;;0.20;;
73919;SDS011;62266;53.348;-1.496;2024-01-30T10:19:22;1.55;;;0.10;;
73919;SDS011;62266;53.348;-1.496;2024-01-30T10:22:06;0.30;;;0.17;;
73919;SDS011;62266;53.348;-1.496;2024-01-30T10:24:50;0.57;;;0.20;;
73919;SDS011;62266;53.348;-1.496;2024-01-30T10:27:34;2.38;;;1.23;;
73919;SDS011;62266;53.348;-1.496;2024-01-30T10:30:18;4.50;;;2.55;;
73919;SDS011;62266;53.348;-1.496;2024-01-30T10:33:02;14.10;;;8.85;;
73919;SDS011;62266;53.348;-1.496;2024-01-30T10:35:46;0.40;;;0.23;;
73919;SDS011;62266;53.348;-1.496;2024-01-30T10:38:32;0.55;;;0.30;;
73919;SDS011;62266;53.348;-1.496;2024-01-30T10:49:35;0.33;;;0.10;;
73919;SDS011;62266;53.348;-1.496;2024-01-30T10:52:14;2.85;;;2.00;;
73919;SDS011;62266;53.348;-1.496;2024-01-30T11:24:43;0.70;;;0.70;;
73919;SDS011;62266;53.348;-1.496;2024-01-30T11:27:33;1.13;;;0.52;;
73919;SDS011;62266;53.348;-1.496;2024-01-30T11:30:24;0.40;;;0.40;;
73919;SDS011;62266;53.348;-1.496;2024-01-30T11:33:15;2.30;;;0.47;;
73919;SDS011;62266;53.348;-1.496;2024-01-30T11:36:11;0.73;;;0.30;;
73919;SDS011;62266;53.348;-1.496;2024-01-30T11:38:57;0.40;;;0.30;;
73919;SDS011;62266;53.348;-1.496;2024-01-30T11:41:41;0.32;;;0.30;;
73919;SDS011;62266;53.348;-1.496;2024-01-30T11:44:25;0.60;;;0.33;;
73919;SDS011;62266;53.348;-1.496;2024-01-30T11:47:09;0.55;;;0.35;;
73919;SDS011;62266;53.348;-1.496;2024-01-30T11:49:53;1.60;;;0.40;;
73919;SDS011;62266;53.348;-1.496;2024-01-30T11:52:38;0.40;;;0.20;;
73919;SDS011;62266;53.348;-1.496;2024-01-30T11:55:22;0.50;;;0.20;;
73919;SDS011;62266;53.348;-1.496;2024-01-30T11:58:06;1.27;;;0.30;;
73919;SDS011;62266;53.348;-1.496;2024-01-30T12:00:57;1.55;;;0.25;;
73919;SDS011;62266;53.348;-1.496;2024-01-30T12:03:41;0.45;;;0.30;;
73919;SDS011;62266;53.348;-1.496;2024-01-30T12:06:25;0.25;;;0.15;;
73919;SDS011;62266;53.348;-1.496;2024-01-30T12:09:10;0.77;;;0.70;;
73919;SDS011;62266;53.348;-1.496;2024-01-30T12:11:56;0.67;;;0.27;;
73919;SDS011;62266;53.348;-1.496;2024-01-30T12:14:40;0.32;;;0.28;;
73919;SDS011;62266;53.348;-1.496;2024-01-30T12:17:30;0.60;;;0.30;;
73919;SDS011;62266;53.348;-1.496;2024-01-30T12:20:17;0.40;;;0.20;;
73919;SDS011;62266;53.348;-1.496;2024-01-30T12:23:02;0.40;;;0.30;;
73919;SDS011;62266;53.348;-1.496;2024-01-30T12:25:46;0.40;;;0.20;;
73919;SDS011;62266;53.348;-1.496;2024-01-30T12:28:30;0.45;;;0.20;;
73919;SDS011;62266;53.348;-1.496;2024-01-30T12:31:14;0.65;;;0.30;;
73919;SDS011;62266;53.348;-1.496;2024-01-30T12:34:01;0.55;;;0.30;;
73919;SDS011;62266;53.348;-1.496;2024-01-30T12:36:46;0.50;;;0.22;;
73919;SDS011;62266;53.348;-1.496;2024-01-30T12:39:32;0.50;;;0.40;;
73919;SDS011;62266;53.348;-1.496;2024-01-30T12:42:18;0.30;;;0.30;;
73919;SDS011;62266;53.348;-1.496;2024-01-30T12:45:03;0.40;;;0.40;;
73919;SDS011;62266;53.348;-1.496;2024-01-30T12:47:48;0.60;;;0.30;;
73919;SDS011;62266;53.348;-1.496;2024-01-30T12:50:32;0.60;;;0.43;;
73919;SDS011;62266;53.348;-1.496;2024-01-30T12:53:16;0.70;;;0.43;;
73919;SDS011;62266;53.348;-1.496;2024-01-30T12:56:00;1.02;;;0.60;;
73919;SDS011;62266;53.348;-1.496;2024-01-30T12:58:44;0.40;;;0.30;;
73919;SDS011;62266;53.348;-1.496;2024-01-30T13:01:28;0.40;;;0.40;;
73919;SDS011;62266;53.348;-1.496;2024-01-30T13:04:12;0.52;;;0.30;;
73919;SDS011;62266;53.348;-1.496;2024-01-30T13:06:56;0.60;;;0.40;;
73919;SDS011;62266;53.348;-1.496;2024-01-30T13:09:40;0.63;;;0.40;;
73919;SDS011;62266;53.348;-1.496;2024-01-30T13:12:25;0.68;;;0.50;;
73919;SDS011;62266;53.348;-1.496;2024-01-30T13:15:09;1.08;;;0.30;;
73919;SDS011;62266;53.348;-1.496;2024-01-30T13:17:54;1.40;;;0.43;;
73919;SDS011;62266;53.348;-1.496;2024-01-30T13:20:38;0.70;;;0.50;;
73919;SDS011;62266;53.348;-1.496;2024-01-30T13:23:22;0.65;;;0.40;;
73919;SDS011;62266;53.348;-1.496;2024-01-30T13:26:06;1.05;;;0.30;;
73919;SDS011;62266;53.348;-1.496;2024-01-30T13:28:50;1.23;;;0.60;;
73919;SDS011;62266;53.348;-1.496;2024-01-30T13:31:35;0.38;;;0.30;;
73919;SDS011;62266;53.348;-1.496;2024-01-30T13:34:19;1.03;;;0.40;;
73919;SDS011;62266;53.348;-1.496;2024-01-30T13:37:03;0.50;;;0.22;;
73919;SDS011;62266;53.348;-1.496;2024-01-30T13:39:47;0.28;;;0.20;;
73919;SDS011;62266;53.348;-1.496;2024-01-30T13:42:31;0.73;;;0.40;;
73919;SDS011;62266;53.348;-1.496;2024-01-30T13:45:16;0.38;;;0.30;;
73919;SDS011;62266;53.348;-1.496;2024-01-30T13:47:59;2.10;;;0.80;;
73919;SDS011;62266;53.348;-1.496;2024-01-30T13:50:43;0.70;;;0.43;;
73919;SDS011;62266;53.348;-1.496;2024-01-30T13:53:27;0.88;;;0.70;;
73919;SDS011;62266;53.348;-1.496;2024-01-30T13:56:11;0.65;;;0.50;;
73919;SDS011;62266;53.348;-1.496;2024-01-30T13:58:55;0.50;;;0.40;;
73919;SDS011;62266;53.348;-1.496;2024-01-30T14:01:40;0.90;;;0.70;;
73919;SDS011;62266;53.348;-1.496;2024-01-30T14:04:24;1.67;;;0.70;;
73919;SDS011;62266;53.348;-1.496;2024-01-30T14:07:08;0.80;;;0.40;;
73919;SDS011;62266;53.348;-1.496;2024-01-30T14:09:52;2.00;;;1.38;;
73919;SDS011;62266;53.348;-1.496;2024-01-30T14:12:37;2.17;;;1.60;;
73919;SDS011;62266;53.348;-1.496;2024-01-30T14:15:20;0.63;;;0.50;;
73919;SDS011;62266;53.348;-1.496;2024-01-30T14:18:06;0.68;;;0.60;;
73919;SDS011;62266;53.348;-1.496;2024-01-30T14:20:52;2.55;;;1.30;;
73919;SDS011;62266;53.348;-1.496;2024-01-30T14:23:36;0.90;;;0.38;;
73919;SDS011;62266;53.348;-1.496;2024-01-30T14:26:19;1.92;;;0.75;;
73919;SDS011;62266;53.348;-1.496;2024-01-30T14:29:04;1.10;;;0.53;;
73919;SDS011;62266;53.348;-1.496;2024-01-30T14:31:48;1.92;;;0.40;;
73919;SDS011;62266;53.348;-1.496;2024-01-30T14:34:32;1.33;;;0.50;;
73919;SDS011;62266;53.348;-1.496;2024-01-30T14:37:16;1.58;;;0.50;;
73919;SDS011;62266;53.348;-1.496;2024-01-30T14:40:00;1.15;;;0.45;;
73919;SDS011;62266;53.348;-1.496;2024-01-30T14:42:44;2.20;;;0.70;;
73919;SDS011;62266;53.348;-1.496;2024-01-30T14:45:28;0.70;;;0.70;;
73919;SDS011;62266;53.348;-1.496;2024-01-30T14:48:12;0.60;;;0.60;;
73919;SDS011;62266;53.348;-1.496;2024-01-30T14:50:56;1.77;;;0.50;;
73919;SDS011;62266;53.348;-1.496;2024-01-30T14:53:40;2.53;;;0.70;;
73919;SDS011;62266;53.348;-1.496;2024-01-30T14:56:24;1.83;;;0.70;;
73919;SDS011;62266;53.348;-1.496;2024-01-30T14:59:08;2.38;;;0.47;;
73919;SDS011;62266;53.348;-1.496;2024-01-30T15:01:52;2.03;;;0.22;;
73919;SDS011;62266;53.348;-1.496;2024-01-30T15:04:36;2.40;;;0.60;;
73919;SDS011;62266;53.348;-1.496;2024-01-30T15:07:20;3.33;;;0.40;;
73919;SDS011;62266;53.348;-1.496;2024-01-30T15:10:04;1.07;;;0.30;;
73919;SDS011;62266;53.348;-1.496;2024-01-30T15:12:48;1.73;;;0.50;;
73919;SDS011;62266;53.348;-1.496;2024-01-30T15:15:32;2.65;;;0.60;;
73919;SDS011;62266;53.348;-1.496;2024-01-30T15:18:16;2.53;;;0.50;;
73919;SDS011;62266;53.348;-1.496;2024-01-30T15:21:00;2.47;;;0.73;;
73919;SDS011;62266;53.348;-1.496;2024-01-30T15:23:44;4.50;;;0.70;;
73919;SDS011;62266;53.348;-1.496;2024-01-30T15:26:28;3.85;;;1.08;;
73919;SDS011;62266;53.348;-1.496;2024-01-30T15:29:12;1.95;;;0.75;;
73919;SDS011;62266;53.348;-1.496;2024-01-30T15:31:56;2.85;;;0.93;;
73919;SDS011;62266;53.348;-1.496;2024-01-30T15:34:40;2.13;;;0.40;;
73919;SDS011;62266;53.348;-1.496;2024-01-30T15:37:25;3.10;;;0.50;;
73919;SDS011;62266;53.348;-1.496;2024-01-30T15:40:09;3.05;;;0.50;;
73919;SDS011;62266;53.348;-1.496;2024-01-30T15:42:54;1.02;;;0.57;;
73919;SDS011;62266;53.348;-1.496;2024-01-30T15:45:39;2.08;;;0.50;;
73919;SDS011;62266;53.348;-1.496;2024-01-30T15:48:23;2.70;;;0.65;;
73919;SDS011;62266;53.348;-1.496;2024-01-30T15:51:07;3.57;;;0.80;;
73919;SDS011;62266;53.348;-1.496;2024-01-30T15:53:51;2.63;;;1.00;;
73919;SDS011;62266;53.348;-1.496;2024-01-30T15:56:35;3.75;;;0.88;;
73919;SDS011;62266;53.348;-1.496;2024-01-30T15:59:19;3.47;;;1.05;;
73919;SDS011;62266;53.348;-1.496;2024-01-30T16:02:03;2.92;;;1.52;;
73919;SDS011;62266;53.348;-1.496;2024-01-30T16:04:47;2.67;;;0.70;;
73919;SDS011;62266;53.348;-1.496;2024-01-30T16:07:31;1.10;;;0.55;;
73919;SDS011;62266;53.348;-1.496;2024-01-30T16:10:16;2.28;;;0.70;;
73919;SDS011;62266;53.348;-1.496;2024-01-30T16:13:00;1.35;;;0.70;;
73919;SDS011;62266;53.348;-1.496;2024-01-30T16:15:44;2.22;;;0.90;;
73919;SDS011;62266;53.348;-1.496;2024-01-30T16:18:28;2.43;;;1.00;;
73919;SDS011;62266;53.348;-1.496;2024-01-30T16:21:15;3.60;;;0.80;;
73919;SDS011;62266;53.348;-1.496;2024-01-30T16:23:59;2.53;;;0.90;;
73919;SDS011;62266;53.348;-1.496;2024-01-30T16:26:44;2.25;;;0.80;;
73919;SDS011;62266;53.348;-1.496;2024-01-30T16:29:29;4.82;;;1.38;;
73919;SDS011;62266;53.348;-1.496;2024-01-30T16:32:13;5.53;;;1.50;;
73919;SDS011;62266;53.348;-1.496;2024-01-30T16:34:57;4.80;;;1.40;;
73919;SDS011;62266;53.348;-1.496;2024-01-30T16:37:43;5.53;;;1.50;;
73919;SDS011;62266;53.348;-1.496;2024-01-30T16:40:28;4.38;;;0.80;;
73919;SDS011;62266;53.348;-1.496;2024-01-30T16:43:12;3.30;;;1.10;;
73919;SDS011;62266;53.348;-1.496;2024-01-30T16:45:56;2.73;;;1.17;;
73919;SDS011;62266;53.348;-1.496;2024-01-30T16:48:41;3.00;;;1.30;;
73919;SDS011;62266;53.348;-1.496;2024-01-30T16:51:25;4.55;;;2.22;;